createdAt,value
2019-02-14T00:07:47.036Z,9.87
2019-02-14T00:10:17.464Z,9.50
2019-02-14T00:12:47.866Z,9.87
2019-02-14T00:15:18.244Z,8.53
2019-02-14T00:17:48.800Z,9.27
2019-02-14T00:20:19.270Z,9.57
2019-02-14T00:25:31.246Z,8.90
2019-02-14T00:30:56.594Z,8.73
2019-02-14T00:33:27.174Z,8.83
2019-02-14T00:35:57.558Z,8.03
2019-02-14T00:38:27.948Z,8.40
2019-02-14T00:40:58.299Z,8.77
2019-02-14T00:43:31.029Z,8.50
2019-02-14T00:46:01.694Z,8.37
2019-02-14T00:48:32.081Z,8.03
2019-02-14T00:51:21.788Z,8.30
2019-02-14T00:53:52.165Z,8.10
2019-02-14T00:56:22.513Z,8.30
2019-02-14T00:59:17.824Z,8.00
2019-02-14T01:01:48.436Z,7.70
2019-02-14T01:07:25.946Z,7.97
2019-02-14T01:12:58.540Z,7.93
2019-02-14T01:18:25.462Z,8.43
2019-02-14T01:21:22.037Z,8.40
2019-02-14T01:26:55.259Z,8.20
2019-02-14T01:32:09.160Z,9.30
2019-02-14T01:37:34.014Z,8.70
2019-02-14T01:42:48.240Z,8.60
2019-02-14T01:45:18.723Z,8.37
2019-02-14T01:53:54.793Z,7.97
2019-02-14T02:02:18.021Z,7.53
2019-02-14T02:04:48.428Z,7.87
2019-02-14T02:07:40.347Z,7.90
2019-02-14T02:10:12.086Z,7.80
2019-02-14T02:12:42.533Z,7.17
2019-02-14T02:15:31.816Z,8.03
2019-02-14T02:18:02.509Z,7.93
2019-02-14T02:24:04.801Z,8.10
2019-02-14T02:26:55.753Z,7.33
2019-02-14T02:29:45.070Z,7.67
2019-02-14T02:35:19.455Z,7.47
2019-02-14T02:37:50.065Z,7.40
2019-02-14T02:40:21.684Z,7.57
2019-02-14T02:45:54.365Z,7.53
2019-02-14T02:48:24.788Z,7.60
2019-02-14T02:51:14.069Z,7.37
2019-02-14T02:53:44.547Z,7.47
2019-02-14T02:56:52.881Z,7.00
2019-02-14T02:59:23.253Z,7.33
2019-02-14T03:04:49.963Z,7.23
2019-02-14T03:07:20.419Z,7.40
2019-02-14T03:19:11.573Z,7.43
2019-02-14T03:31:26.427Z,7.00
2019-02-14T03:33:56.960Z,7.90
2019-02-14T03:36:47.859Z,7.63
2019-02-14T03:39:18.265Z,8.07
2019-02-14T03:42:26.745Z,7.90
2019-02-14T03:44:57.401Z,7.90
2019-02-14T03:47:27.822Z,7.47
2019-02-14T03:49:58.696Z,7.60
2019-02-14T03:55:31.505Z,8.00
2019-02-14T03:58:01.891Z,7.37
2019-02-14T04:03:44.838Z,7.50
2019-02-14T04:06:35.747Z,7.93
2019-02-14T04:09:47.033Z,7.93
2019-02-14T04:12:28.352Z,8.20
2019-02-14T04:15:17.797Z,8.47
2019-02-14T04:21:11.007Z,7.77
2019-02-14T04:23:41.418Z,7.83
2019-02-14T04:26:32.282Z,8.20
2019-02-14T04:29:02.740Z,8.23
2019-02-14T04:34:39.296Z,7.80
2019-02-14T04:37:09.722Z,7.83
2019-02-14T04:39:40.626Z,8.20
2019-02-14T04:42:30.685Z,8.07
2019-02-14T04:45:12.423Z,8.20
2019-02-14T04:50:23.318Z,7.93
2019-02-14T04:56:07.859Z,7.93
2019-02-14T04:58:57.295Z,8.37
2019-02-14T05:04:31.353Z,9.03
2019-02-14T05:07:20.613Z,7.77
2019-02-14T05:12:57.641Z,8.53
2019-02-14T05:15:47.322Z,7.83
2019-02-14T05:27:06.038Z,8.17
2019-02-14T05:29:36.484Z,8.17
2019-02-14T05:35:40.923Z,8.27
2019-02-14T05:41:16.233Z,8.17
2019-02-14T05:43:47.339Z,6.93
2019-02-14T05:46:17.720Z,7.63
2019-02-14T05:51:50.441Z,8.33
2019-02-14T05:54:40.668Z,7.53
2019-02-14T05:57:11.426Z,7.50
2019-02-14T06:00:02.370Z,7.30
2019-02-14T06:02:32.967Z,7.53
2019-02-14T06:11:04.046Z,7.57
2019-02-14T06:16:18.047Z,9.17
2019-02-14T06:21:37.930Z,12.90
2019-02-14T06:24:08.485Z,7.63
2019-02-14T06:29:42.242Z,8.03
2019-02-14T06:37:56.847Z,19.40
2019-02-14T06:40:27.286Z,7.83
2019-02-14T06:45:44.302Z,8.47
2019-02-14T06:50:56.845Z,8.23
2019-02-14T06:53:46.228Z,8.17
2019-02-14T06:59:20.718Z,8.57
2019-02-14T07:01:51.408Z,8.77
2019-02-14T07:07:45.914Z,9.03
2019-02-14T07:10:16.703Z,8.27
2019-02-14T07:12:47.265Z,11.37
2019-02-14T07:15:17.783Z,12.93
2019-02-14T07:20:51.036Z,9.07
2019-02-14T07:32:36.419Z,8.23
2019-02-14T07:35:27.708Z,9.03
2019-02-14T07:38:09.547Z,8.83
2019-02-14T07:40:51.326Z,8.23
2019-02-14T07:55:12.463Z,7.23
2019-02-14T07:57:54.690Z,7.53
2019-02-14T08:00:25.196Z,8.57
2019-02-14T08:03:16.911Z,9.07
2019-02-14T08:06:07.983Z,8.00
2019-02-14T08:08:59.117Z,7.87
2019-02-14T08:11:32.814Z,8.50
2019-02-14T08:14:04.242Z,8.00
2019-02-14T08:19:49.001Z,8.60
2019-02-14T08:23:05.249Z,8.80
2019-02-14T08:34:17.799Z,7.10
2019-02-14T08:39:52.857Z,6.70
2019-02-14T08:45:35.186Z,6.40
2019-02-14T08:54:22.685Z,8.40
2019-02-14T08:56:53.374Z,6.23
2019-02-14T08:59:45.249Z,9.80
2019-02-14T09:05:18.310Z,6.77
2019-02-14T09:10:52.275Z,6.77
2019-02-14T09:13:43.306Z,7.03
2019-02-14T09:16:32.696Z,6.77
2019-02-14T09:19:04.064Z,6.63
2019-02-14T09:21:53.504Z,8.37
2019-02-14T09:24:24.106Z,8.50
2019-02-14T09:27:07.912Z,7.27
2019-02-14T09:32:44.071Z,7.10
2019-02-14T09:35:14.756Z,6.23
2019-02-14T09:37:45.402Z,6.13
2019-02-14T09:40:35.253Z,6.47
2019-02-14T09:49:05.041Z,6.23
2019-02-14T09:51:47.748Z,6.20
2019-02-14T09:57:22.993Z,6.70
2019-02-14T09:59:53.401Z,6.47
2019-02-14T10:02:25.710Z,6.40
2019-02-14T10:08:18.005Z,7.00
2019-02-14T10:10:48.412Z,6.67
2019-02-14T10:13:19.010Z,8.10
2019-02-14T10:18:31.058Z,6.90
2019-02-14T10:21:59.752Z,5.73
2019-02-14T10:27:38.380Z,6.03
2019-02-14T10:30:15.075Z,6.57
2019-02-14T10:32:45.466Z,6.47
2019-02-14T10:35:27.946Z,6.90
2019-02-14T10:41:13.664Z,6.67
2019-02-14T10:46:46.491Z,6.60
2019-02-14T10:49:36.128Z,6.43
2019-02-14T10:52:19.835Z,6.17
2019-02-14T10:54:50.257Z,6.37
2019-02-14T10:57:20.754Z,5.73
2019-02-14T11:08:31.322Z,5.27
2019-02-14T11:11:11.332Z,5.73
2019-02-14T11:16:44.355Z,5.37
2019-02-14T11:19:20.026Z,6.13
2019-02-14T11:21:50.766Z,5.73
2019-02-14T11:24:40.034Z,5.57
2019-02-14T11:30:06.024Z,6.30
2019-02-14T11:32:36.483Z,6.17
2019-02-14T11:35:19.211Z,5.67
2019-02-14T11:37:50.052Z,6.20
2019-02-14T11:40:20.892Z,4.97
2019-02-14T11:42:51.314Z,4.90
2019-02-14T11:45:21.942Z,5.97
2019-02-14T11:48:12.854Z,6.00
2019-02-14T11:50:54.663Z,4.87
2019-02-14T11:53:25.339Z,5.70
2019-02-14T11:55:57.334Z,4.77
2019-02-14T12:04:25.425Z,5.20
2019-02-14T12:10:25.972Z,4.90
2019-02-14T12:12:56.444Z,6.13
2019-02-14T12:15:26.874Z,4.57
2019-02-14T12:24:04.004Z,3.50
2019-02-14T12:42:07.126Z,4.93
2019-02-14T12:44:40.030Z,4.07
2019-02-14T12:53:30.853Z,3.97
2019-02-14T12:59:05.038Z,4.37
2019-02-14T13:01:37.894Z,5.57
2019-02-14T13:04:08.621Z,5.37
2019-02-14T13:06:38.989Z,4.70
2019-02-14T13:09:19.502Z,4.60
2019-02-14T13:12:20.870Z,6.47
2019-02-14T13:14:51.436Z,4.03
2019-02-14T13:17:21.904Z,4.37
2019-02-14T13:29:00.426Z,3.53
2019-02-14T13:34:12.358Z,3.70
2019-02-14T13:39:45.500Z,3.30
2019-02-14T13:45:25.745Z,3.70
2019-02-14T13:47:56.255Z,3.30
2019-02-14T13:50:26.746Z,3.40
2019-02-14T13:55:59.670Z,2.67
2019-02-14T13:58:30.159Z,2.90
2019-02-14T14:04:04.662Z,3.50
2019-02-14T14:09:16.968Z,3.27
2019-02-14T14:11:47.430Z,3.40
2019-02-14T14:14:17.820Z,5.43
2019-02-14T14:16:48.486Z,5.00
2019-02-14T14:19:19.156Z,4.50
2019-02-14T14:21:49.625Z,3.97
2019-02-14T14:24:20.041Z,3.40
2019-02-14T14:26:52.625Z,3.80
2019-02-14T14:29:28.744Z,3.57
2019-02-14T14:35:14.262Z,3.47
2019-02-14T14:37:44.808Z,2.60
2019-02-14T14:46:35.224Z,2.87
2019-02-14T14:49:05.674Z,2.37
2019-02-14T14:54:25.706Z,2.83
2019-02-14T14:57:17.090Z,2.53
2019-02-14T15:03:09.560Z,2.83
2019-02-14T15:05:40.233Z,3.10
2019-02-14T15:08:31.194Z,3.30
2019-02-14T15:11:03.193Z,2.77
2019-02-14T15:13:35.875Z,2.67
2019-02-14T15:16:06.924Z,2.93
2019-02-14T15:18:56.672Z,2.23
2019-02-14T15:21:47.528Z,5.30
2019-02-14T15:27:39.617Z,3.20
2019-02-14T15:30:30.778Z,2.93
2019-02-14T15:33:01.639Z,3.03
2019-02-14T15:35:34.291Z,3.20
2019-02-14T15:38:05.050Z,2.93
2019-02-14T15:40:42.302Z,3.07
2019-02-14T15:43:12.721Z,3.13
2019-02-14T15:45:43.679Z,3.73
2019-02-14T15:48:26.392Z,3.20
2019-02-14T15:51:17.642Z,3.20
2019-02-14T15:59:43.494Z,3.20
2019-02-14T16:02:33.163Z,2.67
2019-02-14T16:05:19.092Z,2.97
2019-02-14T16:11:14.415Z,2.87
2019-02-14T16:23:20.119Z,3.17
2019-02-14T16:25:51.971Z,3.30
2019-02-14T16:29:02.084Z,3.50
2019-02-14T16:31:46.679Z,3.13
2019-02-14T16:37:00.603Z,3.50
2019-02-14T16:39:31.167Z,3.97
2019-02-14T16:42:42.177Z,4.03
2019-02-14T16:45:20.211Z,4.03
2019-02-14T16:50:46.282Z,4.10
2019-02-14T16:53:37.282Z,3.90
2019-02-14T16:59:10.233Z,4.40
2019-02-14T17:04:44.050Z,3.27
2019-02-14T17:15:59.298Z,3.47
2019-02-14T17:18:48.905Z,3.07
2019-02-14T17:21:19.834Z,2.90
2019-02-14T17:23:50.252Z,2.40
2019-02-14T17:26:20.804Z,2.27
2019-02-14T17:28:51.545Z,2.93
2019-02-14T17:31:40.977Z,2.80
2019-02-14T17:34:11.462Z,3.73
2019-02-14T17:36:42.271Z,3.93
2019-02-14T17:39:40.926Z,5.20
2019-02-14T17:42:11.495Z,4.83
2019-02-14T17:50:28.714Z,4.13
2019-02-14T17:53:19.689Z,2.93
2019-02-14T17:56:09.198Z,5.70
2019-02-14T17:58:45.597Z,5.20
2019-02-14T18:01:15.984Z,4.90
2019-02-14T18:03:59.341Z,6.97
2019-02-14T18:12:20.278Z,3.20
2019-02-14T18:15:49.985Z,2.83
2019-02-14T18:21:06.821Z,6.03
2019-02-14T18:23:38.687Z,3.90
2019-02-14T18:26:09.259Z,3.80
2019-02-14T18:31:45.562Z,5.20
2019-02-14T18:40:02.515Z,3.33
2019-02-14T18:42:33.059Z,3.90
2019-02-14T18:45:04.078Z,3.60
2019-02-14T18:47:39.641Z,3.07
2019-02-14T18:53:02.813Z,4.37
2019-02-14T18:55:33.496Z,4.93
2019-02-14T19:01:28.846Z,5.53
2019-02-14T19:03:59.420Z,4.20
2019-02-14T19:06:29.757Z,4.50
2019-02-14T19:09:00.445Z,4.37
2019-02-14T19:14:33.412Z,5.30
2019-02-14T19:17:03.868Z,10.60
2019-02-14T19:19:34.366Z,7.37
2019-02-14T19:22:26.025Z,4.90
2019-02-14T19:25:19.413Z,5.00
2019-02-14T19:28:01.197Z,6.40
2019-02-14T19:30:31.566Z,6.13
2019-02-14T19:33:06.042Z,4.90
2019-02-14T19:35:36.570Z,5.67
2019-02-14T19:38:28.891Z,4.77
2019-02-14T19:41:25.115Z,3.60
2019-02-14T19:47:02.503Z,2.93
2019-02-14T19:49:33.128Z,3.67
2019-02-14T19:54:47.999Z,4.60
2019-02-14T19:57:18.662Z,6.47
2019-02-14T19:59:49.108Z,8.60
2019-02-14T20:02:38.688Z,4.50
2019-02-14T20:05:48.988Z,3.57
2019-02-14T20:08:31.084Z,3.40
2019-02-14T20:11:01.976Z,3.37
2019-02-14T20:13:35.459Z,3.97
2019-02-14T20:16:17.374Z,3.67
2019-02-14T20:18:48.025Z,3.50
2019-02-14T20:27:09.893Z,3.33
2019-02-14T20:29:40.400Z,3.60
2019-02-14T20:32:11.463Z,4.03
2019-02-14T20:35:02.453Z,3.97
2019-02-14T20:37:32.864Z,4.17
2019-02-14T20:42:44.124Z,3.87
2019-02-14T20:45:34.414Z,3.63
2019-02-14T20:50:45.009Z,4.00
2019-02-14T20:53:34.448Z,3.80
2019-02-14T20:59:07.448Z,4.40
2019-02-14T21:01:38.219Z,4.60
2019-02-14T21:04:08.714Z,3.97
2019-02-14T21:15:46.984Z,3.50
2019-02-14T21:18:17.757Z,3.20
2019-02-14T21:21:07.294Z,4.20
2019-02-14T21:23:49.165Z,3.70
2019-02-14T21:26:20.143Z,3.93
2019-02-14T21:31:52.751Z,4.90
2019-02-14T21:34:43.801Z,4.07
2019-02-14T21:37:14.340Z,4.20
2019-02-14T21:40:05.850Z,4.30
2019-02-14T21:42:43.093Z,4.33
2019-02-14T21:48:18.821Z,4.53
2019-02-14T21:51:10.267Z,4.47
2019-02-14T21:56:44.204Z,4.53
2019-02-14T21:59:35.219Z,4.53
2019-02-14T22:02:16.942Z,4.10
2019-02-14T22:10:35.436Z,4.37
2019-02-14T22:19:11.946Z,4.37
2019-02-14T22:22:41.233Z,4.70
2019-02-14T22:25:49.550Z,4.07
2019-02-14T22:35:40.382Z,3.80
2019-02-14T22:38:31.171Z,3.87
2019-02-14T22:41:22.054Z,4.00
2019-02-14T22:46:55.853Z,5.00
2019-02-14T22:49:27.972Z,4.40
2019-02-14T22:52:09.471Z,4.33
2019-02-14T22:54:39.935Z,4.47
2019-02-14T22:57:17.269Z,4.30
2019-02-14T22:59:49.243Z,3.67
2019-02-14T23:05:42.730Z,4.10
2019-02-14T23:08:25.851Z,3.53
2019-02-14T23:10:56.756Z,4.50
2019-02-14T23:13:27.402Z,3.93
2019-02-14T23:19:02.704Z,3.97
2019-02-14T23:30:33.116Z,3.67
2019-02-14T23:33:03.573Z,3.80
2019-02-14T23:35:34.060Z,4.00
2019-02-14T23:38:04.712Z,3.60
2019-02-14T23:40:55.599Z,3.57
2019-02-14T23:43:25.976Z,3.67
2019-02-14T23:45:56.645Z,3.87
2019-02-14T23:48:26.971Z,3.63
2019-02-14T23:51:16.393Z,3.43
2019-02-14T23:54:07.082Z,3.40
2019-02-14T23:59:38.320Z,3.30
